sensor_id;sensor_type;location;lat;lon;timestamp;P1;durP1;ratioP1;P2;durP2;ratioP2
21727;SDS011;11026;50.560;17.852;2023-09-07T00:01:06;13.20;;;11.80;;
21727;SDS011;11026;50.560;17.852;2023-09-07T00:03:34;12.55;;;11.25;;
21727;SDS011;11026;50.560;17.852;2023-09-07T00:06:03;12.90;;;11.50;;
21727;SDS011;11026;50.560;17.852;2023-09-07T00:08:30;13.10;;;11.80;;
21727;SDS011;11026;50.560;17.852;2023-09-07T00:11:03;16.38;;;11.95;;
21727;SDS011;11026;50.560;17.852;2023-09-07T00:13:32;18.65;;;13.45;;
21727;SDS011;11026;50.560;17.852;2023-09-07T00:16:00;15.52;;;13.20;;
21727;SDS011;11026;50.560;17.852;2023-09-07T00:18:28;15.82;;;13.80;;
21727;SDS011;11026;50.560;17.852;2023-09-07T00:20:58;18.48;;;13.35;;
21727;SDS011;11026;50.560;17.852;2023-09-07T00:23:26;17.83;;;13.70;;
21727;SDS011;11026;50.560;17.852;2023-09-07T00:25:54;13.75;;;12.27;;
21727;SDS011;11026;50.560;17.852;2023-09-07T00:28:21;17.25;;;13.23;;
21727;SDS011;11026;50.560;17.852;2023-09-07T00:33:19;18.50;;;13.68;;
21727;SDS011;11026;50.560;17.852;2023-09-07T00:35:46;13.85;;;12.35;;
21727;SDS011;11026;50.560;17.852;2023-09-07T00:38:13;15.32;;;12.60;;
21727;SDS011;11026;50.560;17.852;2023-09-07T00:40:44;19.60;;;13.57;;
21727;SDS011;11026;50.560;17.852;2023-09-07T00:43:15;14.38;;;12.48;;
21727;SDS011;11026;50.560;17.852;2023-09-07T00:45:43;14.68;;;11.70;;
21727;SDS011;11026;50.560;17.852;2023-09-07T00:48:11;12.95;;;11.55;;
21727;SDS011;11026;50.560;17.852;2023-09-07T00:50:40;14.68;;;13.02;;
21727;SDS011;11026;50.560;17.852;2023-09-07T00:53:07;19.15;;;14.60;;
21727;SDS011;11026;50.560;17.852;2023-09-07T00:55:35;18.33;;;14.90;;
21727;SDS011;11026;50.560;17.852;2023-09-07T00:58:04;17.27;;;14.57;;
21727;SDS011;11026;50.560;17.852;2023-09-07T01:00:31;15.00;;;13.50;;
21727;SDS011;11026;50.560;17.852;2023-09-07T01:03:00;16.38;;;14.48;;
21727;SDS011;11026;50.560;17.852;2023-09-07T01:08:39;14.02;;;12.60;;
21727;SDS011;11026;50.560;17.852;2023-09-07T01:11:17;13.65;;;12.02;;
21727;SDS011;11026;50.560;17.852;2023-09-07T01:13:49;13.10;;;11.80;;
21727;SDS011;11026;50.560;17.852;2023-09-07T01:16:23;16.70;;;13.27;;
21727;SDS011;11026;50.560;17.852;2023-09-07T01:18:51;16.50;;;13.93;;
21727;SDS011;11026;50.560;17.852;2023-09-07T01:21:19;19.05;;;16.00;;
21727;SDS011;11026;50.560;17.852;2023-09-07T01:23:46;16.33;;;14.23;;
21727;SDS011;11026;50.560;17.852;2023-09-07T01:26:14;15.43;;;13.23;;
21727;SDS011;11026;50.560;17.852;2023-09-07T01:28:41;18.45;;;15.20;;
21727;SDS011;11026;50.560;17.852;2023-09-07T01:31:08;20.92;;;15.55;;
21727;SDS011;11026;50.560;17.852;2023-09-07T01:33:38;17.77;;;16.00;;
21727;SDS011;11026;50.560;17.852;2023-09-07T01:36:06;18.30;;;15.90;;
21727;SDS011;11026;50.560;17.852;2023-09-07T01:38:33;18.60;;;14.98;;
21727;SDS011;11026;50.560;17.852;2023-09-07T01:41:00;16.27;;;14.43;;
21727;SDS011;11026;50.560;17.852;2023-09-07T01:43:27;19.60;;;14.80;;
21727;SDS011;11026;50.560;17.852;2023-09-07T01:45:56;15.40;;;13.50;;
21727;SDS011;11026;50.560;17.852;2023-09-07T01:48:23;16.60;;;14.32;;
21727;SDS011;11026;50.560;17.852;2023-09-07T01:50:53;20.65;;;15.45;;
21727;SDS011;11026;50.560;17.852;2023-09-07T01:53:22;17.48;;;14.75;;
21727;SDS011;11026;50.560;17.852;2023-09-07T01:55:49;18.40;;;14.38;;
21727;SDS011;11026;50.560;17.852;2023-09-07T01:58:16;20.23;;;15.77;;
21727;SDS011;11026;50.560;17.852;2023-09-07T02:00:43;25.15;;;19.52;;
21727;SDS011;11026;50.560;17.852;2023-09-07T02:03:10;30.88;;;23.05;;
21727;SDS011;11026;50.560;17.852;2023-09-07T02:05:39;34.05;;;26.05;;
21727;SDS011;11026;50.560;17.852;2023-09-07T02:08:06;35.63;;;25.15;;
21727;SDS011;11026;50.560;17.852;2023-09-07T02:10:33;32.10;;;22.45;;
21727;SDS011;11026;50.560;17.852;2023-09-07T02:13:01;22.00;;;16.80;;
21727;SDS011;11026;50.560;17.852;2023-09-07T02:17:58;20.35;;;14.45;;
21727;SDS011;11026;50.560;17.852;2023-09-07T02:20:25;19.50;;;15.05;;
21727;SDS011;11026;50.560;17.852;2023-09-07T02:22:53;28.20;;;14.55;;
21727;SDS011;11026;50.560;17.852;2023-09-07T02:25:21;25.45;;;14.13;;
21727;SDS011;11026;50.560;17.852;2023-09-07T02:27:48;21.02;;;16.38;;
21727;SDS011;11026;50.560;17.852;2023-09-07T02:30:16;20.60;;;16.67;;
21727;SDS011;11026;50.560;17.852;2023-09-07T02:32:44;18.40;;;15.88;;
21727;SDS011;11026;50.560;17.852;2023-09-07T02:35:11;19.02;;;16.13;;
21727;SDS011;11026;50.560;17.852;2023-09-07T02:37:40;23.00;;;17.40;;
21727;SDS011;11026;50.560;17.852;2023-09-07T02:40:07;26.63;;;20.17;;
21727;SDS011;11026;50.560;17.852;2023-09-07T02:42:35;29.70;;;19.85;;
21727;SDS011;11026;50.560;17.852;2023-09-07T02:45:02;34.00;;;21.15;;
21727;SDS011;11026;50.560;17.852;2023-09-07T02:47:29;23.13;;;20.08;;
21727;SDS011;11026;50.560;17.852;2023-09-07T02:49:56;24.10;;;19.25;;
21727;SDS011;11026;50.560;17.852;2023-09-07T02:52:23;23.83;;;18.27;;
21727;SDS011;11026;50.560;17.852;2023-09-07T02:54:51;21.10;;;18.15;;
21727;SDS011;11026;50.560;17.852;2023-09-07T02:57:18;20.02;;;16.85;;
21727;SDS011;11026;50.560;17.852;2023-09-07T02:59:45;18.77;;;15.88;;
21727;SDS011;11026;50.560;17.852;2023-09-07T03:02:12;18.55;;;16.63;;
21727;SDS011;11026;50.560;17.852;2023-09-07T03:04:40;18.45;;;16.48;;
21727;SDS011;11026;50.560;17.852;2023-09-07T03:07:07;22.42;;;17.52;;
21727;SDS011;11026;50.560;17.852;2023-09-07T03:09:36;22.92;;;17.23;;
21727;SDS011;11026;50.560;17.852;2023-09-07T03:12:04;21.55;;;17.33;;
21727;SDS011;11026;50.560;17.852;2023-09-07T03:14:33;20.73;;;17.52;;
21727;SDS011;11026;50.560;17.852;2023-09-07T03:17:00;18.50;;;16.33;;
21727;SDS011;11026;50.560;17.852;2023-09-07T03:19:29;21.30;;;15.52;;
21727;SDS011;11026;50.560;17.852;2023-09-07T03:21:57;20.52;;;16.35;;
21727;SDS011;11026;50.560;17.852;2023-09-07T03:24:25;22.63;;;15.90;;
21727;SDS011;11026;50.560;17.852;2023-09-07T03:26:53;19.90;;;15.63;;
21727;SDS011;11026;50.560;17.852;2023-09-07T03:29:20;18.83;;;14.98;;
21727;SDS011;11026;50.560;17.852;2023-09-07T03:31:48;22.58;;;16.38;;
21727;SDS011;11026;50.560;17.852;2023-09-07T03:34:16;20.05;;;16.70;;
21727;SDS011;11026;50.560;17.852;2023-09-07T03:36:45;20.92;;;15.32;;
21727;SDS011;11026;50.560;17.852;2023-09-07T03:39:14;21.20;;;15.75;;
21727;SDS011;11026;50.560;17.852;2023-09-07T03:41:41;18.33;;;15.75;;
21727;SDS011;11026;50.560;17.852;2023-09-07T03:44:10;15.80;;;14.05;;
21727;SDS011;11026;50.560;17.852;2023-09-07T03:46:38;17.08;;;14.50;;
21727;SDS011;11026;50.560;17.852;2023-09-07T03:49:07;21.00;;;16.30;;
21727;SDS011;11026;50.560;17.852;2023-09-07T03:51:34;18.65;;;15.90;;
21727;SDS011;11026;50.560;17.852;2023-09-07T03:54:01;16.95;;;14.55;;
21727;SDS011;11026;50.560;17.852;2023-09-07T03:56:28;19.23;;;15.25;;
21727;SDS011;11026;50.560;17.852;2023-09-07T03:58:55;18.83;;;15.70;;
21727;SDS011;11026;50.560;17.852;2023-09-07T04:01:24;20.67;;;17.67;;
21727;SDS011;11026;50.560;17.852;2023-09-07T04:03:52;17.55;;;15.35;;
21727;SDS011;11026;50.560;17.852;2023-09-07T04:06:19;23.63;;;17.38;;
21727;SDS011;11026;50.560;17.852;2023-09-07T04:11:18;16.67;;;14.27;;
21727;SDS011;11026;50.560;17.852;2023-09-07T04:13:47;18.00;;;14.07;;
21727;SDS011;11026;50.560;17.852;2023-09-07T04:16:16;15.68;;;12.85;;
21727;SDS011;11026;50.560;17.852;2023-09-07T04:18:43;15.93;;;13.20;;
21727;SDS011;11026;50.560;17.852;2023-09-07T04:21:11;14.60;;;13.02;;
21727;SDS011;11026;50.560;17.852;2023-09-07T04:23:38;15.65;;;13.07;;
21727;SDS011;11026;50.560;17.852;2023-09-07T04:26:10;14.98;;;12.68;;
21727;SDS011;11026;50.560;17.852;2023-09-07T04:28:38;14.68;;;12.27;;
21727;SDS011;11026;50.560;17.852;2023-09-07T04:31:06;18.48;;;13.63;;
21727;SDS011;11026;50.560;17.852;2023-09-07T04:33:33;14.52;;;13.02;;
21727;SDS011;11026;50.560;17.852;2023-09-07T04:36:13;14.73;;;12.63;;
21727;SDS011;11026;50.560;17.852;2023-09-07T04:38:41;17.15;;;14.20;;
21727;SDS011;11026;50.560;17.852;2023-09-07T04:41:08;16.42;;;13.77;;
21727;SDS011;11026;50.560;17.852;2023-09-07T04:46:11;17.77;;;14.82;;
21727;SDS011;11026;50.560;17.852;2023-09-07T04:48:39;16.13;;;12.95;;
21727;SDS011;11026;50.560;17.852;2023-09-07T04:51:08;17.13;;;13.30;;
21727;SDS011;11026;50.560;17.852;2023-09-07T04:53:36;17.70;;;13.07;;
21727;SDS011;11026;50.560;17.852;2023-09-07T04:56:05;16.63;;;14.15;;
21727;SDS011;11026;50.560;17.852;2023-09-07T04:58:33;15.95;;;13.10;;
21727;SDS011;11026;50.560;17.852;2023-09-07T05:01:03;17.55;;;13.85;;
21727;SDS011;11026;50.560;17.852;2023-09-07T05:03:31;17.10;;;13.65;;
21727;SDS011;11026;50.560;17.852;2023-09-07T05:05:59;14.73;;;13.23;;
21727;SDS011;11026;50.560;17.852;2023-09-07T05:08:27;16.27;;;13.90;;
21727;SDS011;11026;50.560;17.852;2023-09-07T05:10:58;19.70;;;14.35;;
21727;SDS011;11026;50.560;17.852;2023-09-07T05:13:28;17.50;;;14.27;;
21727;SDS011;11026;50.560;17.852;2023-09-07T05:15:55;19.77;;;14.43;;
21727;SDS011;11026;50.560;17.852;2023-09-07T05:18:25;21.10;;;14.30;;
21727;SDS011;11026;50.560;17.852;2023-09-07T05:20:53;23.13;;;13.75;;
21727;SDS011;11026;50.560;17.852;2023-09-07T05:23:20;20.35;;;13.57;;
21727;SDS011;11026;50.560;17.852;2023-09-07T05:25:51;16.52;;;12.70;;
21727;SDS011;11026;50.560;17.852;2023-09-07T05:28:20;22.67;;;15.30;;
21727;SDS011;11026;50.560;17.852;2023-09-07T05:30:49;17.05;;;14.90;;
21727;SDS011;11026;50.560;17.852;2023-09-07T05:33:17;17.40;;;15.48;;
21727;SDS011;11026;50.560;17.852;2023-09-07T05:35:46;19.23;;;16.10;;
21727;SDS011;11026;50.560;17.852;2023-09-07T05:38:12;24.98;;;17.17;;
21727;SDS011;11026;50.560;17.852;2023-09-07T05:40:41;22.45;;;16.85;;
21727;SDS011;11026;50.560;17.852;2023-09-07T05:43:09;18.83;;;16.02;;
21727;SDS011;11026;50.560;17.852;2023-09-07T05:45:43;22.60;;;16.85;;
21727;SDS011;11026;50.560;17.852;2023-09-07T05:48:10;23.92;;;17.75;;
21727;SDS011;11026;50.560;17.852;2023-09-07T05:50:37;22.48;;;18.60;;
21727;SDS011;11026;50.560;17.852;2023-09-07T05:53:05;21.13;;;17.52;;
21727;SDS011;11026;50.560;17.852;2023-09-07T05:55:32;21.67;;;18.02;;
21727;SDS011;11026;50.560;17.852;2023-09-07T05:57:59;24.00;;;19.15;;
21727;SDS011;11026;50.560;17.852;2023-09-07T06:00:30;23.60;;;18.58;;
21727;SDS011;11026;50.560;17.852;2023-09-07T06:02:58;21.88;;;19.13;;
21727;SDS011;11026;50.560;17.852;2023-09-07T06:05:25;24.77;;;20.23;;
21727;SDS011;11026;50.560;17.852;2023-09-07T06:10:23;25.40;;;19.58;;
21727;SDS011;11026;50.560;17.852;2023-09-07T06:12:50;25.98;;;19.58;;
21727;SDS011;11026;50.560;17.852;2023-09-07T06:15:17;26.13;;;19.48;;
21727;SDS011;11026;50.560;17.852;2023-09-07T06:17:44;26.83;;;18.88;;
21727;SDS011;11026;50.560;17.852;2023-09-07T06:20:12;25.30;;;19.45;;
21727;SDS011;11026;50.560;17.852;2023-09-07T06:22:39;25.65;;;20.17;;
21727;SDS011;11026;50.560;17.852;2023-09-07T06:25:09;28.63;;;20.95;;
21727;SDS011;11026;50.560;17.852;2023-09-07T06:27:38;23.27;;;19.33;;
21727;SDS011;11026;50.560;17.852;2023-09-07T06:30:06;25.52;;;18.73;;
21727;SDS011;11026;50.560;17.852;2023-09-07T06:32:34;25.30;;;20.15;;
21727;SDS011;11026;50.560;17.852;2023-09-07T06:35:01;26.05;;;19.50;;
21727;SDS011;11026;50.560;17.852;2023-09-07T06:37:29;28.02;;;20.35;;
21727;SDS011;11026;50.560;17.852;2023-09-07T06:39:56;29.13;;;21.17;;
21727;SDS011;11026;50.560;17.852;2023-09-07T06:42:23;30.42;;;20.95;;
21727;SDS011;11026;50.560;17.852;2023-09-07T06:44:51;31.05;;;21.50;;
21727;SDS011;11026;50.560;17.852;2023-09-07T06:47:20;28.30;;;20.33;;
21727;SDS011;11026;50.560;17.852;2023-09-07T06:49:47;24.83;;;17.88;;
21727;SDS011;11026;50.560;17.852;2023-09-07T06:52:15;26.38;;;19.33;;
21727;SDS011;11026;50.560;17.852;2023-09-07T06:54:42;24.80;;;18.60;;
21727;SDS011;11026;50.560;17.852;2023-09-07T06:57:10;26.83;;;19.27;;
21727;SDS011;11026;50.560;17.852;2023-09-07T07:02:09;25.33;;;18.77;;
21727;SDS011;11026;50.560;17.852;2023-09-07T07:04:37;25.17;;;19.13;;
21727;SDS011;11026;50.560;17.852;2023-09-07T07:07:04;29.23;;;19.50;;
21727;SDS011;11026;50.560;17.852;2023-09-07T07:09:32;29.52;;;19.02;;
21727;SDS011;11026;50.560;17.852;2023-09-07T07:14:31;29.05;;;18.55;;
21727;SDS011;11026;50.560;17.852;2023-09-07T07:16:59;24.73;;;16.95;;
21727;SDS011;11026;50.560;17.852;2023-09-07T07:19:30;29.42;;;19.35;;
21727;SDS011;11026;50.560;17.852;2023-09-07T07:24:29;29.35;;;18.40;;
21727;SDS011;11026;50.560;17.852;2023-09-07T07:26:56;26.15;;;18.15;;
21727;SDS011;11026;50.560;17.852;2023-09-07T07:29:23;26.92;;;17.48;;
21727;SDS011;11026;50.560;17.852;2023-09-07T07:31:51;22.58;;;16.55;;
21727;SDS011;11026;50.560;17.852;2023-09-07T07:34:19;30.10;;;17.85;;
21727;SDS011;11026;50.560;17.852;2023-09-07T07:36:46;24.45;;;16.23;;
21727;SDS011;11026;50.560;17.852;2023-09-07T07:39:13;32.58;;;19.30;;
21727;SDS011;11026;50.560;17.852;2023-09-07T07:41:39;29.13;;;17.42;;
21727;SDS011;11026;50.560;17.852;2023-09-07T07:44:09;27.88;;;16.95;;
21727;SDS011;11026;50.560;17.852;2023-09-07T07:46:36;24.75;;;16.58;;
21727;SDS011;11026;50.560;17.852;2023-09-07T07:49:05;25.23;;;15.93;;
21727;SDS011;11026;50.560;17.852;2023-09-07T07:54:05;28.33;;;16.83;;
21727;SDS011;11026;50.560;17.852;2023-09-07T07:56:32;24.58;;;14.45;;
21727;SDS011;11026;50.560;17.852;2023-09-07T07:58:59;24.98;;;13.50;;
21727;SDS011;11026;50.560;17.852;2023-09-07T08:01:26;25.02;;;13.82;;
21727;SDS011;11026;50.560;17.852;2023-09-07T08:03:53;22.73;;;12.85;;
21727;SDS011;11026;50.560;17.852;2023-09-07T08:06:20;19.50;;;12.25;;
21727;SDS011;11026;50.560;17.852;2023-09-07T08:11:18;17.60;;;11.48;;
21727;SDS011;11026;50.560;17.852;2023-09-07T08:13:49;22.33;;;12.55;;
21727;SDS011;11026;50.560;17.852;2023-09-07T08:16:19;23.33;;;12.65;;
21727;SDS011;11026;50.560;17.852;2023-09-07T08:18:46;24.30;;;12.23;;
21727;SDS011;11026;50.560;17.852;2023-09-07T08:21:13;22.70;;;11.95;;
21727;SDS011;11026;50.560;17.852;2023-09-07T08:23:41;20.90;;;12.18;;
21727;SDS011;11026;50.560;17.852;2023-09-07T08:26:10;21.30;;;12.10;;
21727;SDS011;11026;50.560;17.852;2023-09-07T08:31:07;19.85;;;11.80;;
21727;SDS011;11026;50.560;17.852;2023-09-07T08:33:34;18.00;;;11.45;;
21727;SDS011;11026;50.560;17.852;2023-09-07T08:36:07;16.77;;;11.00;;
21727;SDS011;11026;50.560;17.852;2023-09-07T08:38:37;19.15;;;11.52;;
21727;SDS011;11026;50.560;17.852;2023-09-07T08:41:05;18.65;;;11.02;;
21727;SDS011;11026;50.560;17.852;2023-09-07T08:43:35;18.23;;;10.57;;
21727;SDS011;11026;50.560;17.852;2023-09-07T08:46:17;16.70;;;10.25;;
21727;SDS011;11026;50.560;17.852;2023-09-07T08:48:50;15.80;;;10.80;;
21727;SDS011;11026;50.560;17.852;2023-09-07T08:51:18;19.63;;;10.77;;
21727;SDS011;11026;50.560;17.852;2023-09-07T08:53:46;16.50;;;9.23;;
21727;SDS011;11026;50.560;17.852;2023-09-07T08:56:18;15.68;;;9.15;;
21727;SDS011;11026;50.560;17.852;2023-09-07T09:01:17;14.85;;;9.65;;
21727;SDS011;11026;50.560;17.852;2023-09-07T09:03:46;13.30;;;8.60;;
21727;SDS011;11026;50.560;17.852;2023-09-07T09:06:15;12.50;;;8.50;;
21727;SDS011;11026;50.560;17.852;2023-09-07T09:08:45;16.02;;;9.07;;
21727;SDS011;11026;50.560;17.852;2023-09-07T09:13:49;14.50;;;8.63;;
21727;SDS011;11026;50.560;17.852;2023-09-07T09:16:19;16.55;;;8.55;;
21727;SDS011;11026;50.560;17.852;2023-09-07T09:18:51;14.02;;;8.73;;
21727;SDS011;11026;50.560;17.852;2023-09-07T09:21:19;18.38;;;8.68;;
21727;SDS011;11026;50.560;17.852;2023-09-07T09:23:48;14.10;;;8.48;;
21727;SDS011;11026;50.560;17.852;2023-09-07T09:26:17;15.65;;;9.10;;
21727;SDS011;11026;50.560;17.852;2023-09-07T09:28:44;17.05;;;9.32;;
21727;SDS011;11026;50.560;17.852;2023-09-07T09:31:13;13.73;;;8.18;;
21727;SDS011;11026;50.560;17.852;2023-09-07T09:33:42;11.63;;;7.72;;
21727;SDS011;11026;50.560;17.852;2023-09-07T09:36:09;14.50;;;7.50;;
21727;SDS011;11026;50.560;17.852;2023-09-07T09:41:06;13.70;;;7.53;;
21727;SDS011;11026;50.560;17.852;2023-09-07T09:43:36;12.27;;;7.82;;
21727;SDS011;11026;50.560;17.852;2023-09-07T09:46:03;11.65;;;6.75;;
21727;SDS011;11026;50.560;17.852;2023-09-07T09:48:35;10.77;;;7.20;;
21727;SDS011;11026;50.560;17.852;2023-09-07T09:51:04;10.30;;;7.25;;
21727;SDS011;11026;50.560;17.852;2023-09-07T09:53:32;9.95;;;7.47;;
21727;SDS011;11026;50.560;17.852;2023-09-07T09:56:00;10.95;;;6.70;;
21727;SDS011;11026;50.560;17.852;2023-09-07T09:58:28;13.20;;;7.25;;
21727;SDS011;11026;50.560;17.852;2023-09-07T10:00:57;10.07;;;6.35;;
21727;SDS011;11026;50.560;17.852;2023-09-07T10:03:28;9.60;;;6.60;;
21727;SDS011;11026;50.560;17.852;2023-09-07T10:08:57;10.95;;;6.72;;
21727;SDS011;11026;50.560;17.852;2023-09-07T10:11:50;9.95;;;6.80;;
21727;SDS011;11026;50.560;17.852;2023-09-07T10:14:23;9.60;;;6.60;;
21727;SDS011;11026;50.560;17.852;2023-09-07T10:16:51;9.55;;;6.55;;
21727;SDS011;11026;50.560;17.852;2023-09-07T10:19:23;10.40;;;6.40;;
21727;SDS011;11026;50.560;17.852;2023-09-07T10:21:53;12.13;;;6.07;;
21727;SDS011;11026;50.560;17.852;2023-09-07T10:27:05;8.07;;;5.95;;
21727;SDS011;11026;50.560;17.852;2023-09-07T10:29:43;6.57;;;5.53;;
21727;SDS011;11026;50.560;17.852;2023-09-07T10:32:11;9.60;;;5.63;;
21727;SDS011;11026;50.560;17.852;2023-09-07T10:34:46;10.30;;;6.38;;
21727;SDS011;11026;50.560;17.852;2023-09-07T10:37:14;9.93;;;5.78;;
21727;SDS011;11026;50.560;17.852;2023-09-07T10:39:43;9.13;;;5.90;;
21727;SDS011;11026;50.560;17.852;2023-09-07T10:42:25;7.53;;;5.78;;
21727;SDS011;11026;50.560;17.852;2023-09-07T10:44:53;7.35;;;5.28;;
21727;SDS011;11026;50.560;17.852;2023-09-07T10:47:21;9.00;;;6.45;;
21727;SDS011;11026;50.560;17.852;2023-09-07T10:49:48;8.90;;;5.63;;
21727;SDS011;11026;50.560;17.852;2023-09-07T10:52:16;7.38;;;5.30;;
21727;SDS011;11026;50.560;17.852;2023-09-07T10:54:45;8.15;;;5.30;;
21727;SDS011;11026;50.560;17.852;2023-09-07T10:57:21;6.20;;;4.85;;
21727;SDS011;11026;50.560;17.852;2023-09-07T10:59:48;7.75;;;5.28;;
21727;SDS011;11026;50.560;17.852;2023-09-07T11:02:15;10.60;;;5.63;;
21727;SDS011;11026;50.560;17.852;2023-09-07T11:04:43;7.10;;;5.53;;
21727;SDS011;11026;50.560;17.852;2023-09-07T11:07:10;6.03;;;5.15;;
21727;SDS011;11026;50.560;17.852;2023-09-07T11:12:14;6.50;;;5.50;;
21727;SDS011;11026;50.560;17.852;2023-09-07T11:14:42;8.18;;;5.60;;
21727;SDS011;11026;50.560;17.852;2023-09-07T11:17:11;10.05;;;6.03;;
21727;SDS011;11026;50.560;17.852;2023-09-07T11:19:39;6.85;;;5.18;;
21727;SDS011;11026;50.560;17.852;2023-09-07T11:22:08;9.23;;;5.70;;
21727;SDS011;11026;50.560;17.852;2023-09-07T11:24:36;8.93;;;6.07;;
21727;SDS011;11026;50.560;17.852;2023-09-07T11:29:35;8.57;;;5.70;;
21727;SDS011;11026;50.560;17.852;2023-09-07T11:32:09;7.93;;;5.30;;
21727;SDS011;11026;50.560;17.852;2023-09-07T11:34:51;5.90;;;4.90;;
21727;SDS011;11026;50.560;17.852;2023-09-07T11:37:23;8.52;;;5.00;;
21727;SDS011;11026;50.560;17.852;2023-09-07T11:39:52;7.65;;;4.90;;
21727;SDS011;11026;50.560;17.852;2023-09-07T11:42:21;6.30;;;5.18;;
21727;SDS011;11026;50.560;17.852;2023-09-07T11:44:49;6.75;;;5.38;;
21727;SDS011;11026;50.560;17.852;2023-09-07T11:47:16;8.30;;;5.75;;
21727;SDS011;11026;50.560;17.852;2023-09-07T11:49:43;8.57;;;5.43;;
21727;SDS011;11026;50.560;17.852;2023-09-07T11:52:10;7.63;;;5.05;;
21727;SDS011;11026;50.560;17.852;2023-09-07T11:54:37;6.82;;;4.90;;
21727;SDS011;11026;50.560;17.852;2023-09-07T11:59:38;9.10;;;5.18;;
21727;SDS011;11026;50.560;17.852;2023-09-07T12:02:23;6.97;;;5.32;;
21727;SDS011;11026;50.560;17.852;2023-09-07T12:04:51;6.97;;;4.97;;
21727;SDS011;11026;50.560;17.852;2023-09-07T12:07:18;12.85;;;5.00;;
21727;SDS011;11026;50.560;17.852;2023-09-07T12:09:45;8.20;;;5.25;;
21727;SDS011;11026;50.560;17.852;2023-09-07T12:12:12;7.88;;;5.70;;
21727;SDS011;11026;50.560;17.852;2023-09-07T12:14:40;5.78;;;5.25;;
21727;SDS011;11026;50.560;17.852;2023-09-07T12:17:08;6.60;;;5.05;;
21727;SDS011;11026;50.560;17.852;2023-09-07T12:19:35;6.88;;;5.07;;
21727;SDS011;11026;50.560;17.852;2023-09-07T12:22:03;5.55;;;4.80;;
21727;SDS011;11026;50.560;17.852;2023-09-07T12:27:01;7.45;;;4.97;;
21727;SDS011;11026;50.560;17.852;2023-09-07T12:29:28;8.43;;;5.40;;
21727;SDS011;11026;50.560;17.852;2023-09-07T12:31:56;7.32;;;4.78;;
21727;SDS011;11026;50.560;17.852;2023-09-07T12:34:24;7.03;;;5.00;;
21727;SDS011;11026;50.560;17.852;2023-09-07T12:36:51;5.95;;;5.03;;
21727;SDS011;11026;50.560;17.852;2023-09-07T12:39:20;5.38;;;4.88;;
21727;SDS011;11026;50.560;17.852;2023-09-07T12:41:48;6.35;;;4.78;;
21727;SDS011;11026;50.560;17.852;2023-09-07T12:44:15;8.88;;;5.00;;
21727;SDS011;11026;50.560;17.852;2023-09-07T12:46:44;8.38;;;4.30;;
21727;SDS011;11026;50.560;17.852;2023-09-07T12:54:12;5.70;;;4.80;;
21727;SDS011;11026;50.560;17.852;2023-09-07T12:59:11;5.30;;;4.68;;
21727;SDS011;11026;50.560;17.852;2023-09-07T13:01:39;5.63;;;4.22;;
21727;SDS011;11026;50.560;17.852;2023-09-07T13:04:07;5.50;;;4.13;;
21727;SDS011;11026;50.560;17.852;2023-09-07T13:21:42;7.65;;;4.13;;
21727;SDS011;11026;50.560;17.852;2023-09-07T13:24:09;4.60;;;4.20;;
21727;SDS011;11026;50.560;17.852;2023-09-07T13:26:36;5.57;;;4.10;;
21727;SDS011;11026;50.560;17.852;2023-09-07T13:29:03;5.27;;;4.50;;
21727;SDS011;11026;50.560;17.852;2023-09-07T13:34:04;5.28;;;4.22;;
21727;SDS011;11026;50.560;17.852;2023-09-07T13:36:31;6.18;;;4.68;;
21727;SDS011;11026;50.560;17.852;2023-09-07T13:39:00;6.05;;;4.18;;
21727;SDS011;11026;50.560;17.852;2023-09-07T13:41:27;6.65;;;4.57;;
21727;SDS011;11026;50.560;17.852;2023-09-07T13:43:55;7.20;;;4.20;;
21727;SDS011;11026;50.560;17.852;2023-09-07T13:46:23;5.00;;;4.32;;
21727;SDS011;11026;50.560;17.852;2023-09-07T13:48:50;8.65;;;4.60;;
21727;SDS011;11026;50.560;17.852;2023-09-07T13:51:18;7.43;;;5.00;;
21727;SDS011;11026;50.560;17.852;2023-09-07T13:53:45;6.72;;;4.30;;
21727;SDS011;11026;50.560;17.852;2023-09-07T13:56:12;7.72;;;4.47;;
21727;SDS011;11026;50.560;17.852;2023-09-07T13:58:39;7.68;;;4.90;;
21727;SDS011;11026;50.560;17.852;2023-09-07T14:01:08;6.13;;;4.18;;
21727;SDS011;11026;50.560;17.852;2023-09-07T14:03:35;7.47;;;4.50;;
21727;SDS011;11026;50.560;17.852;2023-09-07T14:06:03;9.18;;;4.60;;
21727;SDS011;11026;50.560;17.852;2023-09-07T14:08:30;7.68;;;5.15;;
21727;SDS011;11026;50.560;17.852;2023-09-07T14:11:01;6.72;;;4.57;;
21727;SDS011;11026;50.560;17.852;2023-09-07T14:13:28;6.65;;;5.00;;
21727;SDS011;11026;50.560;17.852;2023-09-07T14:15:56;6.00;;;4.45;;
21727;SDS011;11026;50.560;17.852;2023-09-07T14:20:53;5.60;;;4.35;;
21727;SDS011;11026;50.560;17.852;2023-09-07T14:25:57;7.78;;;4.75;;
21727;SDS011;11026;50.560;17.852;2023-09-07T14:28:25;10.43;;;4.85;;
21727;SDS011;11026;50.560;17.852;2023-09-07T14:30:52;6.10;;;4.82;;
21727;SDS011;11026;50.560;17.852;2023-09-07T14:33:21;8.20;;;4.55;;
21727;SDS011;11026;50.560;17.852;2023-09-07T14:35:48;7.00;;;4.70;;
21727;SDS011;11026;50.560;17.852;2023-09-07T14:40:53;6.93;;;4.63;;
21727;SDS011;11026;50.560;17.852;2023-09-07T14:43:22;5.20;;;4.28;;
21727;SDS011;11026;50.560;17.852;2023-09-07T14:45:50;6.00;;;4.50;;
21727;SDS011;11026;50.560;17.852;2023-09-07T14:50:56;8.02;;;4.72;;
21727;SDS011;11026;50.560;17.852;2023-09-07T14:53:23;8.18;;;4.53;;
21727;SDS011;11026;50.560;17.852;2023-09-07T14:58:20;8.40;;;4.70;;
21727;SDS011;11026;50.560;17.852;2023-09-07T15:00:47;6.40;;;4.57;;
21727;SDS011;11026;50.560;17.852;2023-09-07T15:03:14;5.93;;;4.72;;
21727;SDS011;11026;50.560;17.852;2023-09-07T15:05:41;6.75;;;4.72;;
21727;SDS011;11026;50.560;17.852;2023-09-07T15:08:09;5.95;;;5.35;;
21727;SDS011;11026;50.560;17.852;2023-09-07T15:10:36;6.60;;;4.60;;
21727;SDS011;11026;50.560;17.852;2023-09-07T15:13:03;6.07;;;4.40;;
21727;SDS011;11026;50.560;17.852;2023-09-07T15:15:33;6.22;;;4.43;;
21727;SDS011;11026;50.560;17.852;2023-09-07T15:18:03;6.97;;;4.70;;
21727;SDS011;11026;50.560;17.852;2023-09-07T15:20:32;8.75;;;4.93;;
21727;SDS011;11026;50.560;17.852;2023-09-07T15:22:59;5.72;;;4.70;;
21727;SDS011;11026;50.560;17.852;2023-09-07T15:27:58;7.38;;;4.60;;
21727;SDS011;11026;50.560;17.852;2023-09-07T15:30:25;7.10;;;4.75;;
21727;SDS011;11026;50.560;17.852;2023-09-07T15:32:52;6.45;;;4.82;;
21727;SDS011;11026;50.560;17.852;2023-09-07T15:35:19;5.55;;;5.03;;
21727;SDS011;11026;50.560;17.852;2023-09-07T15:37:46;5.55;;;4.63;;
21727;SDS011;11026;50.560;17.852;2023-09-07T15:40:14;4.97;;;4.47;;
21727;SDS011;11026;50.560;17.852;2023-09-07T15:42:41;7.70;;;4.80;;
21727;SDS011;11026;50.560;17.852;2023-09-07T15:45:08;6.38;;;4.97;;
21727;SDS011;11026;50.560;17.852;2023-09-07T15:47:37;5.53;;;4.90;;
21727;SDS011;11026;50.560;17.852;2023-09-07T15:50:04;5.20;;;4.70;;
21727;SDS011;11026;50.560;17.852;2023-09-07T15:52:43;8.35;;;4.75;;
21727;SDS011;11026;50.560;17.852;2023-09-07T15:55:13;6.70;;;5.13;;
21727;SDS011;11026;50.560;17.852;2023-09-07T15:57:42;5.68;;;5.05;;
21727;SDS011;11026;50.560;17.852;2023-09-07T16:00:10;6.80;;;5.70;;